Date,TemperatureHighF,TemperatureAvgF,TemperatureLowF,DewpointHighF,DewpointAvgF,DewpointLowF,HumidityHigh,HumidityAvg,HumidityLow,PressureMaxIn,PressureMinIn,WindSpeedMaxMPH,WindSpeedAvgMPH,GustSpeedMaxMPH,PrecipitationSumIn
2013-2-1,56,51,47,50,48,45,95,91,80,30.16,29.81,3,1,10,0.00
2013-2-2,55,51,42,50,48,40,95,88,74,29.80,29.28,12,4,31,0.39
2013-2-3,46,41,38,44,37,30,96,88,68,29.92,29.40,12,4,24,0.70
2013-2-4,48,41,38,31,27,22,72,57,37,30.14,29.93,10,4,23,0.00
2013-2-5,48,44,38,46,35,23,94,73,53,30.13,29.80,6,1,10,0.22
2013-2-6,51,45,37,47,43,34,96,92,84,29.80,29.47,6,1,17,0.17
2013-2-7,43,39,36,41,36,33,93,89,83,29.54,29.49,6,1,15,0.24
2013-2-8,42,38,35,34,32,27,90,78,64,29.73,29.52,9,4,23,0.01
2013-2-9,41,35,28,32,28,24,91,75,65,29.86,29.71,9,3,18,0.00
2013-2-10,41,33,28,28,26,23,91,77,55,29.96,29.86,6,1,14,0.09
2013-2-11,48,40,29,42,33,19,90,75,55,29.98,29.63,10,3,22,0.28
2013-2-12,45,41,38,43,39,37,94,93,88,29.66,29.58,7,2,20,1.24
2013-2-13,49,42,38,42,38,34,95,85,68,29.81,29.63,5,0,12,0.13
2013-2-14,48,42,38,38,36,33,88,78,68,29.98,29.81,16,5,24,0.00
2013-2-15,39,38,37,33,33,32,85,83,80,29.98,29.96,2,1,7,0.00
2013-2-24,42,38,37,34,34,33,88,84,75,29.94,29.79,1,0,7,0.00
2013-2-25,47,39,34,39,35,31,93,85,72,30.04,29.95,3,0,9,0.05
2013-2-26,48,43,41,41,37,34,90,78,67,30.10,29.99,12,3,22,0.04
2013-2-27,51,43,36,39,36,33,89,78,57,30.19,30.08,3,1,9,0.00
2013-2-28,54,45,37,41,37,33,85,73,54,30.23,30.15,9,2,21,0.00